»·PEaware :: AAL221 EHAM-KDFW

AAL221 :: EHAM-KDFW

FLIGHT INFORMATION

Flight Status: Arrived
Operator:
American Airlines
More flights by this operator :: More flights under this callsign
Pilot: Drew L. (13237)
Aircraft: BOEING 767-300
(B763)
More flights by this aircraft type
Origin: EHAM Schiphol
Netherlands
Destination: KDFW Dallas-Ft Worth Intl
United States
More flights between these airports :: More routes between these airports
Route: EH048 DCT EH126 DCT EH643 DCT EH091 DCT NIRSI DCT BERGI DCT AMGOD DCT SUPUR DCT MIMVA DCT GIVPO DCT NALAX DCT GIPLO DCT PENIL DCT BABRA DCT GIGTO DCT UNDUX DCT SOPAX DCT RAMOX/M080F300 DCT KOKIB DCT 5521N DCT 5530N DCT 5642N DCT 5640N DCT 5550N/N0468F300 DCT LOMSI DCT VOGUS DCT RAGUP DCT TUKIR DCT CYYZ DCT XOSAP DCT KLPR DCT KEVV DCT KCIR DCT KARG DCT LIT FINGR5
File this flight plan on PilotEdge
Remarks:
Altitude:
(Current/Filed)
30,000ft
Speed:
(Current/Filed)
480kts
Departed: 12-May-17 08:56 PM
Arrived: 13-May-17 09:15 AM
Distance/Time
Traveled:
4263nm/12:19
Distance/Time
To Go:
Arrived

Flight Plot

Page will automatically refresh every two minutes.

Flight plan parsing failed; only flown route is shown


Map Options




Map Legend


Flown Route
Filed Route
Departure Airport
Arrival Airport
Navaid (VOR, NDB)
Fix

Horizontal Profiles

Position Reports

Time Latitude Longitude Heading Altitude Ground
Speed
12-May-17 19:47 52.305607 4.767886 271 1ft 0kts
12-May-17 19:48 52.305607 4.767886 271 1ft 0kts
12-May-17 19:49 52.305607 4.767886 271 1ft 0kts
12-May-17 19:50 52.305607 4.767886 271 1ft 0kts
12-May-17 19:51 52.305607 4.767886 271 1ft 0kts
12-May-17 19:52 52.305607 4.767886 271 1ft 0kts
12-May-17 19:53 52.305607 4.767886 271 1ft 0kts
12-May-17 19:54 52.305607 4.767886 271 1ft 0kts
12-May-17 19:55 52.305607 4.767886 271 1ft 0kts
12-May-17 19:56 52.305607 4.767886 271 1ft 0kts
12-May-17 19:57 52.305607 4.767886 271 1ft 0kts
12-May-17 19:58 52.305607 4.767886 271 1ft 0kts
12-May-17 19:59 52.305607 4.767886 271 1ft 0kts
12-May-17 20:00 52.305607 4.767886 271 1ft 0kts
12-May-17 20:01 52.305607 4.767886 271 1ft 0kts
12-May-17 20:02 52.305607 4.767886 271 1ft 0kts
12-May-17 20:03 52.305607 4.767886 271 1ft 0kts
12-May-17 20:04 52.305607 4.767886 271 1ft 0kts
12-May-17 20:05 52.305607 4.767886 271 1ft 0kts
12-May-17 20:06 52.305607 4.767886 271 1ft 0kts
12-May-17 20:07 52.305607 4.767886 271 1ft 0kts
12-May-17 20:08 52.305607 4.767886 271 1ft 0kts
12-May-17 20:09 52.305607 4.767886 271 1ft 0kts
12-May-17 20:10 52.305607 4.767886 271 1ft 0kts
12-May-17 20:11 52.305607 4.767886 271 1ft 0kts
12-May-17 20:12 52.305607 4.767886 271 1ft 0kts
12-May-17 20:13 52.305607 4.767886 271 1ft 0kts
12-May-17 20:14 52.305607 4.767886 271 1ft 0kts
12-May-17 20:15 52.305607 4.767886 271 1ft 0kts
12-May-17 20:16 52.305607 4.767886 271 1ft 0kts
12-May-17 20:17 52.305607 4.767886 271 1ft 0kts
12-May-17 20:18 52.305607 4.767886 271 1ft 0kts
12-May-17 20:19 52.305607 4.767886 271 1ft 0kts
12-May-17 20:20 52.305607 4.767886 271 1ft 0kts
12-May-17 20:21 52.305607 4.767886 271 1ft 0kts
12-May-17 20:22 52.305607 4.767886 271 1ft 0kts
12-May-17 20:23 52.305607 4.767886 271 1ft 0kts
12-May-17 20:24 52.305607 4.767886 271 1ft 0kts
12-May-17 20:25 52.305607 4.767886 271 1ft 0kts
12-May-17 20:26 52.305607 4.767886 271 1ft 0kts
12-May-17 20:27 52.305607 4.767886 271 1ft 0kts
12-May-17 20:28 52.305607 4.767886 271 1ft 0kts
12-May-17 20:29 52.305607 4.767886 271 1ft 0kts
12-May-17 20:30 52.305607 4.767887 271 0ft 0kts
12-May-17 20:31 52.305607 4.767887 271 0ft 0kts
12-May-17 20:32 52.305607 4.767887 271 0ft 0kts
12-May-17 20:33 52.305607 4.767887 271 0ft 0kts
12-May-17 20:34 52.305607 4.767887 271 0ft 0kts
12-May-17 20:35 52.305607 4.767887 271 0ft 0kts
12-May-17 20:36 52.305607 4.767887 271 0ft 0kts
12-May-17 20:37 52.305607 4.767887 271 0ft 0kts
12-May-17 20:38 52.305607 4.767887 271 0ft 0kts
12-May-17 20:39 52.305607 4.767887 271 0ft 0kts
12-May-17 20:40 52.305607 4.767887 271 0ft 0kts
12-May-17 20:41 52.305607 4.767887 271 0ft 0kts
12-May-17 20:42 52.305607 4.767887 271 0ft 0kts
12-May-17 20:43 52.305607 4.767887 271 0ft 0kts
12-May-17 20:44 52.305607 4.767887 271 0ft 0kts
12-May-17 20:45 52.305607 4.767887 271 0ft 0kts
12-May-17 20:46 52.305606 4.768650 267 0ft 2kts
12-May-17 20:47 52.305666 4.769167 217 0ft 0kts
12-May-17 20:48 52.305666 4.769167 217 0ft 0kts
12-May-17 20:49 52.305431 4.769266 138 0ft 7kts
12-May-17 20:50 52.305106 4.770830 61 0ft 0kts
12-May-17 20:51 52.305106 4.770830 61 0ft 0kts
12-May-17 20:52 52.305248 4.771248 60 0ft 11kts
12-May-17 20:53 52.309150 4.774788 3 0ft 15kts
12-May-17 20:54 52.312774 4.776272 90 0ft 12kts
12-May-17 20:55 52.313816 4.786515 86 0ft 39kts
12-May-17 20:56 52.316399 4.796915 358 0ft 19kts
12-May-17 20:57 52.318321 4.795865 266 0ft 0kts
12-May-17 20:58 52.317259 4.765214 264 1ft 176kts
12-May-17 20:59 52.312634 4.666130 263 2423ft 247kts
12-May-17 21:00 52.307001 4.552867 268 5514ft 255kts
12-May-17 21:01 52.360262 4.490557 359 8118ft 287kts
12-May-17 21:02 52.442064 4.491643 4 10204ft 322kts
12-May-17 21:03 52.541305 4.506860 4 12032ft 377kts
12-May-17 21:04 52.639803 4.460335 329 14710ft 385kts
12-May-17 21:05 52.733569 4.371108 320 17166ft 398kts
12-May-17 21:06 52.795331 4.221119 297 19420ft 406kts
12-May-17 21:07 52.851510 4.055511 296 21525ft 421kts
12-May-17 21:08 52.909027 3.884129 296 23440ft 435kts
12-May-17 21:09 52.968199 3.706518 296 25219ft 447kts
12-May-17 21:10 53.028165 3.525180 296 26872ft 458kts
12-May-17 21:11 53.089154 3.339387 296 28394ft 468kts
12-May-17 21:12 53.163049 3.158759 303 29737ft 480kts
12-May-17 21:13 53.241183 2.975224 303 29745ft 484kts
12-May-17 21:14 53.292894 2.774553 278 29757ft 471kts
12-May-17 21:15 53.313732 2.557930 276 29749ft 472kts
12-May-17 21:16 53.332662 2.342088 275 29750ft 472kts
12-May-17 21:17 53.351034 2.126340 275 29750ft 472kts
12-May-17 21:18 53.369125 1.908966 275 29750ft 472kts
12-May-17 21:19 53.386792 1.691777 275 29749ft 472kts
12-May-17 21:20 53.404046 1.474618 276 29749ft 472kts
12-May-17 21:21 53.420477 1.262909 275 29666ft 472kts
12-May-17 21:22 53.436991 1.044873 275 29670ft 472kts
12-May-17 21:23 53.453186 0.826093 273 29660ft 479kts
12-May-17 21:24 53.469279 0.602096 273 29664ft 480kts
12-May-17 21:25 53.484415 0.379702 271 29668ft 480kts
12-May-17 21:26 53.492849 0.159212 270 29670ft 480kts
12-May-17 21:27 53.501142 -0.063851 270 29670ft 480kts
12-May-17 21:28 53.509032 -0.287017 270 29670ft 480kts
12-May-17 21:29 53.516497 -0.509925 270 29670ft 479kts
12-May-17 21:30 53.523478 -0.730653 269 29669ft 479kts
12-May-17 21:31 53.532286 -0.953428 271 29671ft 480kts
12-May-17 21:32 53.541524 -1.177051 271 29670ft 480kts
12-May-17 21:33 53.550316 -1.400332 271 29670ft 480kts
12-May-17 21:34 53.558686 -1.623509 271 29669ft 480kts
12-May-17 21:35 53.566538 -1.843479 270 29616ft 479kts
12-May-17 21:36 53.574078 -2.067037 270 29632ft 479kts
12-May-17 21:37 53.581211 -2.290693 270 29643ft 479kts
12-May-17 21:38 53.587896 -2.513310 270 29643ft 479kts
12-May-17 21:39 53.594133 -2.734659 269 29643ft 479kts
12-May-17 21:40 53.600005 -2.957846 269 29616ft 479kts
12-May-17 21:41 53.605482 -3.182005 269 29616ft 479kts
12-May-17 21:42 53.610525 -3.405468 269 29616ft 479kts
12-May-17 21:43 53.615158 -3.629310 269 29617ft 479kts
12-May-17 21:44 53.623670 -3.851512 271 29598ft 480kts
12-May-17 21:45 53.632748 -4.075807 271 29536ft 479kts
12-May-17 21:46 53.641260 -4.299878 271 29534ft 479kts
12-May-17 21:47 53.649486 -4.523410 271 29535ft 480kts
12-May-17 21:48 53.657145 -4.745127 270 29535ft 479kts
12-May-17 21:49 53.677274 -4.967281 279 29539ft 483kts
12-May-17 21:50 53.705812 -5.188051 280 29536ft 483kts
12-May-17 21:51 53.734106 -5.409234 280 29536ft 483kts
12-May-17 21:52 53.761961 -5.630368 280 29540ft 482kts
12-May-17 21:53 53.789133 -5.849518 279 29563ft 482kts
12-May-17 21:54 53.816006 -6.069805 279 29555ft 482kts
12-May-17 21:55 53.842670 -6.292019 279 29563ft 482kts
12-May-17 21:56 53.868928 -6.514561 279 29564ft 482kts
12-May-17 21:57 53.894510 -6.734979 278 29562ft 481kts
12-May-17 21:58 53.919855 -6.957317 278 29563ft 481kts
12-May-17 21:59 53.944857 -7.180476 278 29564ft 481kts
12-May-17 22:00 53.969341 -7.402941 278 29564ft 481kts
12-May-17 22:01 53.993470 -7.626188 278 29537ft 481kts
12-May-17 22:02 54.016931 -7.847265 277 29537ft 481kts
12-May-17 22:03 54.040237 -8.071039 277 29538ft 481kts
12-May-17 22:04 54.063131 -8.295100 277 29538ft 481kts
12-May-17 22:05 54.085583 -8.519156 277 29538ft 481kts
12-May-17 22:06 54.107097 -8.738059 276 29531ft 481kts
12-May-17 22:07 54.128677 -8.962075 276 29533ft 481kts
12-May-17 22:08 54.149880 -9.186725 276 29533ft 481kts
12-May-17 22:09 54.170731 -9.412331 276 29533ft 481kts
12-May-17 22:10 54.191066 -9.637110 276 29533ft 481kts
12-May-17 22:11 54.210980 -9.862131 275 29533ft 480kts
12-May-17 22:12 54.230524 -10.087899 275 29533ft 480kts
12-May-17 22:13 54.249632 -10.313729 275 29533ft 480kts
12-May-17 22:14 54.268273 -10.539218 275 29533ft 481kts
12-May-17 22:15 54.286536 -10.765448 274 29533ft 480kts
12-May-17 22:16 54.304411 -10.992350 274 29533ft 481kts
12-May-17 22:17 54.321859 -11.219421 274 29534ft 481kts
12-May-17 22:18 54.338854 -11.446323 274 29534ft 481kts
12-May-17 22:19 54.355378 -11.672793 273 29534ft 481kts
12-May-17 22:20 54.371427 -11.898735 273 29535ft 481kts
12-May-17 22:21 54.387166 -12.126477 273 29561ft 481kts
12-May-17 22:22 54.402444 -12.353907 273 29561ft 481kts
12-May-17 22:23 54.417302 -12.581620 273 29561ft 481kts
12-May-17 22:24 54.431735 -12.809546 272 29561ft 480kts
12-May-17 22:25 54.445738 -13.037640 272 29561ft 481kts
12-May-17 22:26 54.459267 -13.265134 272 29561ft 481kts
12-May-17 22:27 54.472422 -13.493700 272 29562ft 481kts
12-May-17 22:28 54.485109 -13.721742 271 29561ft 480kts
12-May-17 22:29 54.497390 -13.950401 271 29562ft 480kts
12-May-17 22:30 54.517865 -14.178259 276 29563ft 483kts
12-May-17 22:31 54.540356 -14.405110 276 29562ft 483kts
12-May-17 22:32 54.562488 -14.633519 276 29562ft 483kts
12-May-17 22:33 54.584097 -14.861230 275 29562ft 482kts
12-May-17 22:34 54.605267 -15.089064 275 29563ft 483kts
12-May-17 22:35 54.626050 -15.317587 275 29563ft 483kts
12-May-17 22:36 54.646356 -15.545832 275 29563ft 483kts
12-May-17 22:37 54.666300 -15.775062 274 29562ft 482kts
12-May-17 22:38 54.685738 -16.003668 274 29563ft 482kts
12-May-17 22:39 54.704816 -16.233346 274 29563ft 482kts
12-May-17 22:40 54.720350 -16.424516 274 29564ft 482kts
12-May-17 22:41 54.741546 -16.691798 273 29564ft 483kts
12-May-17 22:42 54.756355 -16.883245 273 29564ft 483kts
12-May-17 22:43 54.776544 -17.151033 273 29564ft 483kts
12-May-17 22:44 54.793229 -17.378605 272 29564ft 473kts
12-May-17 22:45 54.806763 -17.567969 272 29564ft 475kts
12-May-17 22:46 54.825162 -17.832286 272 29565ft 474kts
12-May-17 22:47 54.837959 -18.021373 272 29565ft 474kts
12-May-17 22:48 54.852911 -18.248179 271 29565ft 474kts
12-May-17 22:49 54.869839 -18.513290 271 29565ft 474kts
12-May-17 22:50 54.881454 -18.700757 271 29566ft 474kts
12-May-17 22:51 54.897371 -18.965802 271 29565ft 474kts
12-May-17 22:52 54.908415 -19.155726 271 29565ft 474kts
12-May-17 22:53 54.921267 -19.383642 271 29566ft 474kts
12-May-17 22:54 54.935743 -19.650103 270 29566ft 474kts
12-May-17 22:55 54.945666 -19.839307 270 29567ft 474kts
12-May-17 22:56 54.957200 -20.067252 270 29565ft 474kts
12-May-17 22:57 54.968351 -20.295417 270 29567ft 474kts
12-May-17 22:58 54.979056 -20.523893 269 29092ft 485kts
12-May-17 22:59 54.989319 -20.741270 267 29580ft 428kts
12-May-17 23:00 54.997853 -20.948529 267 29579ft 437kts
12-May-17 23:01 55.005714 -21.157662 267 29568ft 432kts
12-May-17 23:02 55.012985 -21.366333 267 29565ft 432kts
12-May-17 23:03 55.019880 -21.574755 267 29565ft 432kts
12-May-17 23:04 55.026432 -21.783496 266 29569ft 431kts
12-May-17 23:05 55.032623 -21.992331 266 29569ft 432kts
12-May-17 23:06 55.038453 -22.201081 266 29567ft 431kts
12-May-17 23:07 55.043906 -22.409153 266 29565ft 430kts
12-May-17 23:08 55.049005 -22.618082 266 29579ft 434kts
12-May-17 23:09 55.053768 -22.826306 266 29571ft 430kts
12-May-17 23:10 55.058154 -23.034336 266 29568ft 430kts
12-May-17 23:11 55.062189 -23.242848 266 29567ft 430kts
12-May-17 23:12 55.065861 -23.450974 266 29566ft 430kts
12-May-17 23:13 55.069181 -23.659305 265 29566ft 430kts
12-May-17 23:14 55.072144 -23.867185 265 29570ft 429kts
12-May-17 23:15 55.074733 -24.073953 265 29515ft 430kts
12-May-17 23:16 55.076987 -24.282076 265 29487ft 429kts
12-May-17 23:17 55.078878 -24.489202 265 29484ft 428kts
12-May-17 23:18 55.080422 -24.697308 264 29491ft 428kts
12-May-17 23:19 55.081613 -24.904520 264 29489ft 427kts
12-May-17 23:20 55.082447 -25.111339 264 29487ft 427kts
12-May-17 23:21 55.082929 -25.318405 264 29486ft 427kts
12-May-17 23:22 55.083060 -25.525650 264 29484ft 427kts
12-May-17 23:23 55.082843 -25.732494 264 29489ft 426kts
12-May-17 23:24 55.082278 -25.938466 264 29488ft 426kts
12-May-17 23:25 55.081359 -26.145384 264 29487ft 426kts
12-May-17 23:26 55.080093 -26.351625 264 29485ft 426kts
12-May-17 23:27 55.078482 -26.557471 264 29483ft 425kts
12-May-17 23:28 55.076523 -26.763763 263 29489ft 425kts
12-May-17 23:29 55.074220 -26.969479 263 29488ft 425kts
12-May-17 23:30 55.071576 -27.174681 263 29486ft 425kts
12-May-17 23:31 55.068577 -27.380379 263 29485ft 424kts
12-May-17 23:32 55.065241 -27.585574 263 29483ft 424kts
12-May-17 23:33 55.061560 -27.790939 262 29488ft 423kts
12-May-17 23:34 55.057551 -27.995263 263 29486ft 423kts
12-May-17 23:35 55.053180 -28.200426 263 29485ft 423kts
12-May-17 23:36 55.048489 -28.404477 263 29484ft 423kts
12-May-17 23:37 55.043442 -28.609002 263 29481ft 422kts
12-May-17 23:38 55.038123 -28.811117 262 29488ft 422kts
12-May-17 23:39 55.032422 -29.014666 262 29487ft 422kts
12-May-17 23:40 55.026360 -29.218777 262 29484ft 421kts
12-May-17 23:41 55.019982 -29.422131 262 29483ft 421kts
12-May-17 23:42 55.013261 -29.625501 262 29481ft 421kts
12-May-17 23:43 55.006226 -29.828174 261 29487ft 420kts
12-May-17 23:44 55.002601 -30.031606 273 29481ft 428kts
12-May-17 23:45 55.031103 -30.234163 277 29512ft 432kts
12-May-17 23:46 55.058404 -30.437863 277 29510ft 431kts
12-May-17 23:47 55.084989 -30.641179 277 29509ft 431kts
12-May-17 23:48 55.111156 -30.844370 276 29504ft 430kts
12-May-17 23:49 55.136994 -31.047943 276 29528ft 429kts
12-May-17 23:50 55.162277 -31.250044 276 29807ft 427kts
12-May-17 23:51 55.187287 -31.452934 276 30015ft 428kts
12-May-17 23:52 55.211971 -31.656131 275 30013ft 427kts
12-May-17 23:53 55.236251 -31.859061 275 30020ft 426kts
12-May-17 23:54 55.260242 -32.062613 275 30018ft 426kts
12-May-17 23:55 55.283813 -32.265730 275 30017ft 426kts
12-May-17 23:56 55.307036 -32.468978 275 30016ft 425kts
12-May-17 23:57 55.329862 -32.671955 275 30019ft 425kts
12-May-17 23:58 55.352339 -32.875047 275 30021ft 424kts
12-May-17 23:59 55.374489 -33.078431 275 30020ft 424kts
13-May-17 00:00 55.396271 -33.281776 275 30018ft 424kts
13-May-17 00:01 55.417761 -33.485782 275 30015ft 423kts
13-May-17 00:02 55.438771 -33.688670 274 30024ft 423kts
13-May-17 00:03 55.459513 -33.892384 274 30019ft 423kts
13-May-17 00:04 55.479849 -34.095661 274 30020ft 422kts
13-May-17 00:05 55.499850 -34.299170 274 30018ft 422kts
13-May-17 00:06 55.519567 -34.503470 274 30017ft 421kts
13-May-17 00:07 55.538840 -34.706880 274 30025ft 421kts
13-May-17 00:08 55.557714 -34.909738 274 30023ft 421kts
13-May-17 00:09 55.576189 -35.112155 274 30022ft 418kts
13-May-17 00:10 55.594341 -35.314843 274 30019ft 418kts
13-May-17 00:11 55.612140 -35.517515 274 30017ft 418kts
13-May-17 00:12 55.629525 -35.719486 273 30026ft 417kts
13-May-17 00:13 55.646625 -35.922119 273 30023ft 416kts
13-May-17 00:14 55.663380 -36.124838 273 30021ft 416kts
13-May-17 00:15 55.679732 -36.326857 273 30019ft 416kts
13-May-17 00:16 55.695826 -36.529946 273 30018ft 416kts
13-May-17 00:17 55.711493 -36.732151 273 30026ft 415kts
13-May-17 00:18 55.726891 -36.935222 273 30023ft 415kts
13-May-17 00:19 55.741880 -37.137498 273 30021ft 414kts
13-May-17 00:20 55.756518 -37.339652 273 30020ft 414kts
13-May-17 00:21 55.770863 -37.542578 273 30018ft 414kts
13-May-17 00:22 55.784870 -37.745516 272 30026ft 414kts
13-May-17 00:23 55.798471 -37.947518 272 30024ft 413kts
13-May-17 00:24 55.811775 -38.150226 272 30022ft 413kts
13-May-17 00:25 55.824734 -38.352900 272 30020ft 413kts
13-May-17 00:26 55.837338 -38.555372 272 30017ft 412kts
13-May-17 00:27 55.849477 -38.755723 272 30026ft 412kts
13-May-17 00:28 55.861417 -38.958337 272 30024ft 412kts
13-May-17 00:29 55.873015 -39.160969 272 30022ft 412kts
13-May-17 00:30 55.884276 -39.363651 272 30020ft 412kts
13-May-17 00:31 55.895183 -39.566078 272 30018ft 411kts
13-May-17 00:32 55.905764 -39.768647 271 30025ft 411kts
13-May-17 00:33 55.932850 -39.966498 295 30028ft 427kts
13-May-17 00:34 56.003205 -40.138031 290 30024ft 423kts
13-May-17 00:35 56.026460 -40.338389 273 30022ft 412kts
13-May-17 00:36 56.033447 -40.545038 254 29952ft 427kts
13-May-17 00:37 55.981253 -40.736805 233 30097ft 451kts
13-May-17 00:38 55.914271 -40.937926 234 30305ft 494kts
13-May-17 00:39 55.841465 -41.153472 244 31498ft 509kts
13-May-17 00:40 55.769031 -41.367724 244 33324ft 505kts
13-May-17 00:41 55.696421 -41.580624 244 34012ft 505kts
13-May-17 00:42 55.623697 -41.791987 243 34021ft 504kts
13-May-17 00:43 55.550484 -42.002921 243 34019ft 504kts
13-May-17 00:44 55.477239 -42.212125 243 34022ft 504kts
13-May-17 00:45 55.404933 -42.423025 251 34016ft 498kts
13-May-17 00:46 55.382422 -42.655082 273 34042ft 480kts
13-May-17 00:47 55.377007 -42.887615 273 34024ft 478kts
13-May-17 00:48 55.371263 -43.121207 273 34022ft 479kts
13-May-17 00:49 55.365087 -43.354683 273 34023ft 479kts
13-May-17 00:50 55.358486 -43.587397 273 34023ft 479kts
13-May-17 00:51 55.351395 -43.821589 272 34023ft 480kts
13-May-17 00:52 55.343886 -44.054738 272 34023ft 479kts
13-May-17 00:53 55.335923 -44.288156 272 34023ft 479kts
13-May-17 00:54 55.327531 -44.521044 272 34024ft 479kts
13-May-17 00:55 55.318680 -44.754253 271 34024ft 480kts
13-May-17 00:56 55.309366 -44.987830 271 34024ft 481kts
13-May-17 00:57 55.299584 -45.221757 271 34024ft 481kts
13-May-17 00:58 55.289336 -45.456000 271 34031ft 483kts
13-May-17 00:59 55.278654 -45.689928 271 34024ft 481kts
13-May-17 01:00 55.267540 -45.923298 271 34023ft 482kts
13-May-17 01:01 55.255943 -46.157374 271 34024ft 482kts
13-May-17 01:02 55.243949 -46.390319 271 34025ft 482kts
13-May-17 01:03 55.231481 -46.623703 271 34025ft 482kts
13-May-17 01:04 55.218546 -46.857341 270 34025ft 484kts
13-May-17 01:05 55.205126 -47.091418 270 34025ft 483kts
13-May-17 01:06 55.191302 -47.324671 270 34109ft 483kts
13-May-17 01:07 55.177020 -47.557935 270 34106ft 483kts
13-May-17 01:08 55.162299 -47.790990 269 34134ft 484kts
13-May-17 01:09 55.147136 -48.023759 269 34134ft 484kts
13-May-17 01:10 55.131412 -48.258024 269 34129ft 483kts
13-May-17 01:11 55.115338 -48.490972 269 34136ft 485kts
13-May-17 01:12 55.098953 -48.721641 268 34133ft 485kts
13-May-17 01:13 55.081951 -48.954609 268 34134ft 485kts
13-May-17 01:14 55.064473 -49.187834 268 34135ft 485kts
13-May-17 01:15 55.046528 -49.421128 268 34136ft 485kts
13-May-17 01:16 55.028177 -49.653709 267 34136ft 485kts
13-May-17 01:17 55.009365 -49.886169 267 34135ft 486kts
13-May-17 01:18 54.970690 -50.114645 253 34138ft 498kts
13-May-17 01:19 54.918185 -50.337279 252 34137ft 499kts
13-May-17 01:20 54.864037 -50.558514 252 34125ft 499kts
13-May-17 01:21 54.809327 -50.779395 251 34133ft 503kts
13-May-17 01:22 54.754254 -50.999403 251 34125ft 499kts
13-May-17 01:23 54.698593 -51.219624 251 34126ft 501kts
13-May-17 01:24 54.642580 -51.439041 251 34128ft 500kts
13-May-17 01:25 54.586000 -51.658521 250 34128ft 500kts
13-May-17 01:26 54.529099 -51.877101 250 34128ft 501kts
13-May-17 01:27 54.471862 -52.094870 250 34130ft 502kts
13-May-17 01:28 54.414093 -52.312532 250 34130ft 502kts
13-May-17 01:29 54.355977 -52.529434 250 34132ft 502kts
13-May-17 01:30 54.297420 -52.745923 249 34132ft 502kts
13-May-17 01:31 54.238419 -52.961988 249 34132ft 502kts
13-May-17 01:32 54.179036 -53.177439 249 34134ft 503kts
13-May-17 01:33 54.119067 -53.392956 249 34130ft 502kts
13-May-17 01:34 54.058844 -53.607455 249 34136ft 503kts
13-May-17 01:35 53.998673 -53.819762 248 34135ft 503kts
13-May-17 01:36 53.937560 -54.033450 248 34136ft 503kts
13-May-17 01:37 53.876336 -54.245598 248 34124ft 504kts
13-May-17 01:38 53.814521 -54.457843 248 34126ft 504kts
13-May-17 01:39 53.752556 -54.668729 247 34126ft 504kts
13-May-17 01:40 53.689809 -54.880367 247 34126ft 505kts
13-May-17 01:41 53.626929 -55.090586 247 34128ft 505kts
13-May-17 01:42 53.563333 -55.301322 247 34129ft 505kts
13-May-17 01:43 53.499553 -55.510822 247 34131ft 505kts
13-May-17 01:44 53.436441 -55.716439 246 34122ft 508kts
13-May-17 01:45 53.371766 -55.925117 246 34129ft 505kts
13-May-17 01:46 53.306751 -56.133221 246 34132ft 506kts
13-May-17 01:47 53.241223 -56.341160 246 34133ft 506kts
13-May-17 01:48 53.175505 -56.547928 246 34134ft 506kts
13-May-17 01:49 53.109863 -56.752711 245 34134ft 506kts
13-May-17 01:50 53.043362 -56.958860 245 34135ft 506kts
13-May-17 01:51 52.976467 -57.164592 245 34136ft 507kts
13-May-17 01:52 52.909466 -57.368925 245 34137ft 507kts
13-May-17 01:53 52.843108 -57.569623 245 34126ft 507kts
13-May-17 01:54 52.775829 -57.771471 245 34126ft 508kts
13-May-17 01:55 52.707464 -57.974886 245 34126ft 507kts
13-May-17 01:56 52.638856 -58.177361 245 34128ft 507kts
13-May-17 01:57 52.569800 -58.379506 245 34129ft 507kts
13-May-17 01:58 52.500619 -58.580384 245 34130ft 507kts
13-May-17 01:59 52.432677 -58.776100 244 34130ft 508kts
13-May-17 02:00 52.362595 -58.976381 244 34131ft 508kts
13-May-17 02:01 52.292235 -59.175867 244 34132ft 508kts
13-May-17 02:02 52.221541 -59.374716 244 34133ft 508kts
13-May-17 02:03 52.150371 -59.573325 244 34135ft 508kts
13-May-17 02:04 52.079481 -59.769605 243 34134ft 508kts
13-May-17 02:05 52.007782 -59.966587 243 34135ft 508kts
13-May-17 02:06 51.935649 -60.163234 243 34136ft 508kts
13-May-17 02:07 51.875852 -60.325097 243 34123ft 508kts
13-May-17 02:08 51.791019 -60.552978 243 34127ft 508kts
13-May-17 02:09 51.730599 -60.714053 242 34125ft 509kts
13-May-17 02:10 51.644906 -60.940759 242 34127ft 509kts
13-May-17 02:11 51.571243 -61.134050 242 34102ft 508kts
13-May-17 02:12 51.497310 -61.326591 242 34103ft 508kts
13-May-17 02:13 51.435123 -61.487431 242 34104ft 508kts
13-May-17 02:14 51.348682 -61.709352 241 34103ft 509kts
13-May-17 02:15 51.286182 -61.868611 241 34104ft 509kts
13-May-17 02:16 51.198100 -62.091786 236 34098ft 514kts
13-May-17 02:17 51.134560 -62.251038 235 34100ft 511kts
13-May-17 02:18 51.058244 -62.441289 235 34106ft 512kts
13-May-17 02:19 50.981405 -62.631514 235 34107ft 511kts
13-May-17 02:20 50.905620 -62.817775 234 34102ft 511kts
13-May-17 02:21 50.829733 -63.002957 234 34102ft 511kts
13-May-17 02:22 50.752282 -63.190609 234 34103ft 511kts
13-May-17 02:23 50.674447 -63.377842 234 34104ft 511kts
13-May-17 02:24 50.596538 -63.563921 234 34109ft 513kts
13-May-17 02:25 50.518770 -63.748353 233 34100ft 511kts
13-May-17 02:26 50.439914 -63.934047 233 34101ft 512kts
13-May-17 02:27 50.361147 -64.118194 233 33997ft 513kts
13-May-17 02:28 50.281423 -64.303340 233 33996ft 513kts
13-May-17 02:29 50.201486 -64.487658 233 33998ft 513kts
13-May-17 02:30 50.122373 -64.668812 232 33996ft 513kts
13-May-17 02:31 50.042286 -64.850927 232 33994ft 512kts
13-May-17 02:32 49.961837 -65.032610 232 33995ft 512kts
13-May-17 02:33 49.881678 -65.212412 232 33995ft 512kts
13-May-17 02:34 49.800479 -65.393307 232 33997ft 512kts
13-May-17 02:35 49.719442 -65.572623 232 33998ft 512kts
13-May-17 02:36 49.638400 -65.750753 231 33991ft 511kts
13-May-17 02:37 49.557130 -65.928185 231 33993ft 511kts
13-May-17 02:38 49.475115 -66.106057 231 33994ft 510kts
13-May-17 02:39 49.393132 -66.282674 231 33996ft 510kts
13-May-17 02:40 49.310667 -66.459172 231 33998ft 510kts
13-May-17 02:41 49.227893 -66.635150 231 33999ft 510kts
13-May-17 02:42 49.145818 -66.808507 230 33993ft 509kts
13-May-17 02:43 49.062782 -66.982765 230 33994ft 509kts
13-May-17 02:44 48.979403 -67.156612 230 33995ft 509kts
13-May-17 02:45 48.896404 -67.328558 230 33996ft 508kts
13-May-17 02:46 48.812558 -67.501132 230 33998ft 508kts
13-May-17 02:47 48.729348 -67.671328 229 33995ft 508kts
13-May-17 02:48 48.645539 -67.841657 229 34017ft 507kts
13-May-17 02:49 48.561536 -68.011299 230 34060ft 509kts
13-May-17 02:50 48.476629 -68.181312 239 34080ft 487kts
13-May-17 02:51 48.398704 -68.337081 239 34075ft 462kts
13-May-17 02:52 48.320749 -68.491761 239 34071ft 463kts
13-May-17 02:53 48.243359 -68.644403 239 34038ft 463kts
13-May-17 02:54 48.166814 -68.794511 239 33998ft 462kts
13-May-17 02:55 48.088943 -68.946387 239 33999ft 461kts
13-May-17 02:56 48.010892 -69.097765 239 34000ft 461kts
13-May-17 02:57 47.932901 -69.248186 239 33998ft 460kts
13-May-17 02:58 47.855630 -69.396396 239 33988ft 459kts
13-May-17 02:59 47.777425 -69.545579 239 33986ft 458kts
13-May-17 03:00 47.703172 -69.695131 240 33995ft 456kts
13-May-17 03:01 47.629533 -69.847207 240 33981ft 451kts
13-May-17 03:02 47.555920 -69.998555 240 33992ft 455kts
13-May-17 03:03 47.482271 -70.149133 240 33994ft 454kts
13-May-17 03:04 47.408446 -70.299238 240 33992ft 452kts
13-May-17 03:05 47.334447 -70.448886 240 33991ft 452kts
13-May-17 03:06 47.260454 -70.597713 240 33991ft 451kts
13-May-17 03:07 47.186881 -70.744906 239 34000ft 452kts
13-May-17 03:08 47.112795 -70.892323 239 33998ft 450kts
13-May-17 03:09 47.038563 -71.039255 239 33997ft 450kts
13-May-17 03:10 46.964275 -71.185514 239 33995ft 448kts
13-May-17 03:11 46.890949 -71.329146 239 33992ft 449kts
13-May-17 03:12 46.816558 -71.474076 239 34042ft 448kts
13-May-17 03:13 46.742489 -71.617638 239 34040ft 447kts
13-May-17 03:14 46.683832 -71.771142 251 34056ft 436kts
13-May-17 03:15 46.636329 -71.932174 252 33995ft 437kts
13-May-17 03:16 46.588554 -72.093539 252 33993ft 435kts
13-May-17 03:17 46.540602 -72.254505 251 33991ft 434kts
13-May-17 03:18 46.492666 -72.414387 251 33991ft 434kts
13-May-17 03:19 46.444308 -72.574641 251 33988ft 433kts
13-May-17 03:20 46.396316 -72.732689 251 33998ft 434kts
13-May-17 03:21 46.347678 -72.891846 251 34024ft 433kts
13-May-17 03:22 46.298810 -73.050751 251 34021ft 433kts
13-May-17 03:23 46.249868 -73.208908 251 34021ft 432kts
13-May-17 03:24 46.200600 -73.367129 250 33993ft 432kts
13-May-17 03:25 46.151235 -73.524680 250 33991ft 432kts
13-May-17 03:26 46.102200 -73.680219 250 33999ft 432kts
13-May-17 03:27 46.052398 -73.837218 250 33998ft 431kts
13-May-17 03:28 46.003171 -73.991499 248 33987ft 417kts
13-May-17 03:29 45.954764 -74.142287 248 33993ft 420kts
13-May-17 03:30 45.905849 -74.293775 248 33992ft 420kts
13-May-17 03:31 45.857383 -74.442994 248 33989ft 420kts
13-May-17 03:32 45.807976 -74.594243 248 33987ft 420kts
13-May-17 03:33 45.758868 -74.743718 248 33997ft 421kts
13-May-17 03:34 45.708997 -74.894640 248 33995ft 420kts
13-May-17 03:35 45.658946 -75.045238 248 33993ft 420kts
13-May-17 03:36 45.608693 -75.195581 248 33992ft 420kts
13-May-17 03:37 45.558568 -75.344685 248 33936ft 420kts
13-May-17 03:38 45.507897 -75.494567 248 33935ft 421kts
13-May-17 03:39 45.456929 -75.644473 248 33933ft 421kts
13-May-17 03:40 45.406345 -75.792415 247 33942ft 421kts
13-May-17 03:41 45.355291 -75.940991 247 33940ft 418kts
13-May-17 03:42 45.303665 -76.090227 247 33939ft 422kts
13-May-17 03:43 45.251224 -76.238570 243 33934ft 423kts
13-May-17 03:44 45.189131 -76.380304 242 33936ft 424kts
13-May-17 03:45 45.126359 -76.521309 242 33935ft 424kts
13-May-17 03:46 45.063949 -76.660604 241 33937ft 424kts
13-May-17 03:47 45.000554 -76.801368 241 33943ft 425kts
13-May-17 03:48 44.937036 -76.941726 241 33996ft 425kts
13-May-17 03:49 44.875536 -77.076967 241 33992ft 425kts
13-May-17 03:50 44.811540 -77.217017 241 33991ft 425kts
13-May-17 03:51 44.747526 -77.356429 241 33990ft 425kts
13-May-17 03:52 44.683367 -77.495475 241 33988ft 425kts
13-May-17 03:53 44.618850 -77.634622 241 33987ft 426kts
13-May-17 03:54 44.570026 -77.739484 241 33971ft 427kts
13-May-17 03:55 44.505528 -77.877416 241 33996ft 426kts
13-May-17 03:56 44.440593 -78.015624 241 33992ft 426kts
13-May-17 03:57 44.375492 -78.153519 241 33938ft 426kts
13-May-17 03:58 44.310021 -78.291545 241 33937ft 427kts
13-May-17 03:59 44.244346 -78.429339 241 33936ft 427kts
13-May-17 04:00 44.178396 -78.567056 241 33934ft 427kts
13-May-17 04:01 44.113737 -78.701435 240 33946ft 428kts
13-May-17 04:02 44.047679 -78.838090 240 33943ft 428kts
13-May-17 04:03 43.981109 -78.975162 240 33942ft 428kts
13-May-17 04:04 43.914632 -79.111403 240 33940ft 428kts
13-May-17 04:05 43.856147 -79.230737 240 33937ft 429kts
13-May-17 04:06 43.789263 -79.366613 240 33935ft 429kts
13-May-17 04:07 43.722701 -79.501211 240 33934ft 429kts
13-May-17 04:08 43.654221 -79.633312 232 33927ft 436kts
13-May-17 04:09 43.567195 -79.749285 229 33942ft 439kts
13-May-17 04:10 43.478539 -79.864468 229 33942ft 439kts
13-May-17 04:11 43.389758 -79.979053 229 33943ft 439kts
13-May-17 04:12 43.300830 -80.093319 229 33994ft 440kts
13-May-17 04:13 43.212062 -80.206895 229 33993ft 440kts
13-May-17 04:14 43.122848 -80.320570 229 33938ft 440kts
13-May-17 04:15 43.033499 -80.433944 229 33937ft 440kts
13-May-17 04:16 42.944171 -80.546820 229 33991ft 441kts
13-May-17 04:17 42.856435 -80.657220 228 33988ft 441kts
13-May-17 04:18 42.766141 -80.770384 228 33995ft 441kts
13-May-17 04:19 42.672772 -80.878376 223 33998ft 447kts
13-May-17 04:20 42.572949 -80.978813 223 33993ft 447kts
13-May-17 04:21 42.472773 -81.078812 223 33993ft 448kts
13-May-17 04:22 42.372787 -81.178180 223 33992ft 448kts
13-May-17 04:23 42.272969 -81.276980 223 33992ft 448kts
13-May-17 04:24 42.172462 -81.376056 223 33991ft 449kts
13-May-17 04:25 42.071692 -81.474998 223 33990ft 449kts
13-May-17 04:26 41.971304 -81.573170 223 33972ft 449kts
13-May-17 04:27 41.872732 -81.669186 222 33995ft 450kts
13-May-17 04:28 41.771962 -81.766949 222 33977ft 451kts
13-May-17 04:29 41.671106 -81.864430 222 34000ft 447kts
13-May-17 04:30 41.570731 -81.961037 222 33996ft 446kts
13-May-17 04:31 41.469947 -82.057668 222 33993ft 446kts
13-May-17 04:32 41.369602 -82.153531 222 33973ft 446kts
13-May-17 04:33 41.289907 -82.274083 238 33967ft 434kts
13-May-17 04:34 41.217154 -82.401520 238 33964ft 433kts
13-May-17 04:35 41.144468 -82.528728 238 33963ft 434kts
13-May-17 04:36 41.072170 -82.654775 237 33962ft 434kts
13-May-17 04:37 40.999131 -82.781584 237 33971ft 435kts
13-May-17 04:38 40.925633 -82.908680 237 33970ft 435kts
13-May-17 04:39 40.858439 -83.024418 237 33974ft 435kts
13-May-17 04:40 40.784671 -83.150977 238 33991ft 436kts
13-May-17 04:41 40.710840 -83.277127 238 33990ft 436kts
13-May-17 04:42 40.635786 -83.404914 238 33966ft 458kts
13-May-17 04:43 40.554985 -83.541860 238 34016ft 494kts
13-May-17 04:44 40.471345 -83.682834 237 33991ft 492kts
13-May-17 04:45 40.387643 -83.823391 237 33994ft 493kts
13-May-17 04:46 40.303101 -83.964711 237 33997ft 493kts
13-May-17 04:47 40.218630 -84.105275 237 33998ft 493kts
13-May-17 04:48 40.133969 -84.245524 237 33998ft 493kts
13-May-17 04:49 40.048937 -84.385755 237 33999ft 493kts
13-May-17 04:50 39.963943 -84.525301 237 34000ft 493kts
13-May-17 04:51 39.887037 -84.650985 238 33997ft 491kts
13-May-17 04:52 39.807321 -84.780661 237 33968ft 438kts
13-May-17 04:53 39.730854 -84.904824 237 33996ft 445kts
13-May-17 04:54 39.654006 -85.028943 237 33998ft 444kts
13-May-17 04:55 39.577063 -85.152741 237 33993ft 444kts
13-May-17 04:56 39.499639 -85.276818 237 33991ft 444kts
13-May-17 04:57 39.422227 -85.400393 237 33990ft 444kts
13-May-17 04:58 39.344326 -85.524262 237 33989ft 444kts
13-May-17 04:59 39.266701 -85.647212 237 33988ft 444kts
13-May-17 05:00 39.189316 -85.769300 237 33998ft 445kts
13-May-17 05:01 39.111053 -85.892306 237 33998ft 444kts
13-May-17 05:02 39.032816 -86.014796 237 33997ft 444kts
13-May-17 05:03 38.954446 -86.137022 237 33996ft 444kts
13-May-17 05:04 38.876405 -86.258270 237 33988ft 444kts
13-May-17 05:05 38.798043 -86.379551 237 33988ft 444kts
13-May-17 05:06 38.719287 -86.500982 237 33987ft 445kts
13-May-17 05:07 38.640138 -86.622545 237 33982ft 444kts
13-May-17 05:08 38.561993 -86.742142 236 34024ft 446kts
13-May-17 05:09 38.482628 -86.863132 236 34023ft 445kts
13-May-17 05:10 38.403250 -86.983692 236 34022ft 445kts
13-May-17 05:11 38.323707 -87.104047 236 33994ft 445kts
13-May-17 05:12 38.243894 -87.224363 236 33993ft 445kts
13-May-17 05:13 38.163951 -87.344424 236 33992ft 445kts
13-May-17 05:14 38.084255 -87.463672 236 34019ft 445kts
13-May-17 05:15 38.007389 -87.585280 242 34022ft 440kts
13-May-17 05:16 37.937339 -87.711521 240 34029ft 442kts
13-May-17 05:17 37.867158 -87.835501 240 34020ft 441kts
13-May-17 05:18 37.795598 -87.961229 240 34020ft 442kts
13-May-17 05:19 37.724106 -88.086333 240 33991ft 441kts
13-May-17 05:20 37.652238 -88.211625 240 33992ft 442kts
13-May-17 05:21 37.580450 -88.336304 240 33999ft 442kts
13-May-17 05:22 37.508647 -88.460540 240 34017ft 441kts
13-May-17 05:23 37.436626 -88.584691 240 34015ft 440kts
13-May-17 05:24 37.366040 -88.705926 239 34027ft 442kts
13-May-17 05:25 37.293593 -88.829889 239 34024ft 441kts
13-May-17 05:26 37.220954 -88.953730 239 34023ft 441kts
13-May-17 05:27 37.148142 -89.077404 239 34022ft 441kts
13-May-17 05:28 37.075448 -89.200427 239 34021ft 441kts
13-May-17 05:29 37.018110 -89.305044 242 33994ft 439kts
13-May-17 05:30 36.938603 -89.452463 242 33992ft 439kts
13-May-17 05:31 36.882779 -89.555532 242 33984ft 439kts
13-May-17 05:32 36.804054 -89.700348 241 33998ft 439kts
13-May-17 05:33 36.735519 -89.825915 241 33994ft 438kts
13-May-17 05:34 36.666890 -89.951192 241 33994ft 438kts
13-May-17 05:35 36.609777 -90.055095 241 34020ft 438kts
13-May-17 05:36 36.528592 -90.202324 241 34034ft 456kts
13-May-17 05:37 36.468849 -90.310120 241 34015ft 451kts
13-May-17 05:38 36.386082 -90.459025 241 33999ft 452kts
13-May-17 05:39 36.326767 -90.565335 241 34017ft 452kts
13-May-17 05:40 36.243758 -90.713553 240 34026ft 452kts
13-May-17 05:41 36.184395 -90.819155 240 34024ft 451kts
13-May-17 05:42 36.105203 -90.940057 224 34026ft 466kts
13-May-17 05:43 36.000746 -91.034630 221 34024ft 468kts
13-May-17 05:44 35.896513 -91.126812 221 34023ft 467kts
13-May-17 05:45 35.791740 -91.218990 221 34018ft 468kts
13-May-17 05:46 35.686091 -91.311595 221 33989ft 466kts
13-May-17 05:47 35.580661 -91.403718 221 33990ft 466kts
13-May-17 05:48 35.475458 -91.495335 221 33990ft 466kts
13-May-17 05:49 35.369979 -91.586895 221 33989ft 465kts
13-May-17 05:50 35.265887 -91.676957 221 34027ft 466kts
13-May-17 05:51 35.160337 -91.767979 221 34025ft 465kts
13-May-17 05:52 35.054939 -91.858583 221 34025ft 465kts
13-May-17 05:53 34.949365 -91.949044 221 34024ft 464kts
13-May-17 05:54 34.845198 -92.038021 221 33992ft 464kts
13-May-17 05:55 34.739850 -92.127715 221 33991ft 463kts
13-May-17 05:56 34.663668 -92.244462 254 33996ft 437kts
13-May-17 05:57 34.624766 -92.383565 256 33989ft 436kts
13-May-17 05:58 34.587453 -92.523939 256 33990ft 438kts
13-May-17 05:59 34.550897 -92.661688 255 33991ft 437kts
13-May-17 06:00 34.513616 -92.801546 255 33996ft 437kts
13-May-17 06:01 34.476141 -92.941421 255 33995ft 437kts
13-May-17 06:02 34.438438 -93.081430 255 33994ft 437kts
13-May-17 06:03 34.400577 -93.221310 255 33993ft 437kts
13-May-17 06:04 34.362674 -93.360622 255 33991ft 437kts
13-May-17 06:05 34.324667 -93.499619 255 33990ft 437kts
13-May-17 06:06 34.286522 -93.638396 255 33989ft 437kts
13-May-17 06:07 34.248481 -93.776100 255 33998ft 437kts
13-May-17 06:08 34.209901 -93.915060 255 33997ft 437kts
13-May-17 06:09 34.171296 -94.053428 255 33995ft 437kts
13-May-17 06:10 34.132443 -94.192003 255 33994ft 437kts
13-May-17 06:11 34.093476 -94.330302 255 34021ft 437kts
13-May-17 06:12 34.054355 -94.468471 255 34019ft 436kts
13-May-17 06:13 34.015063 -94.606572 255 34017ft 436kts
13-May-17 06:14 33.975756 -94.744039 254 34026ft 437kts
13-May-17 06:15 33.947635 -94.841987 254 34045ft 436kts
13-May-17 06:16 33.947635 -94.841987 254 34045ft 436kts
13-May-17 06:17 33.947635 -94.841987 254 34045ft 436kts
13-May-17 06:18 33.947635 -94.841987 254 34045ft 436kts
13-May-17 06:19 33.947635 -94.841987 254 34045ft 436kts
13-May-17 06:20 33.947635 -94.841987 254 34045ft 436kts
13-May-17 06:21 33.947635 -94.841987 254 34045ft 436kts
13-May-17 06:22 33.947635 -94.841987 254 34045ft 436kts
13-May-17 06:23 33.947635 -94.841987 254 34045ft 436kts
13-May-17 06:24 33.947635 -94.841987 254 34045ft 436kts
13-May-17 06:25 33.947635 -94.841987 254 34045ft 436kts
13-May-17 06:26 33.947635 -94.841987 254 34045ft 436kts
13-May-17 06:27 33.947635 -94.841987 254 34045ft 436kts
13-May-17 06:28 33.947635 -94.841987 254 34045ft 436kts
13-May-17 06:29 33.947635 -94.841987 254 34045ft 436kts
13-May-17 06:30 33.947635 -94.841987 254 34045ft 436kts
13-May-17 06:31 33.947635 -94.841987 254 34045ft 436kts
13-May-17 06:32 33.947635 -94.841987 254 34045ft 436kts
13-May-17 06:33 33.947635 -94.841987 254 34045ft 436kts
13-May-17 06:34 33.947635 -94.841987 254 34045ft 436kts
13-May-17 06:35 33.947635 -94.841987 254 34045ft 436kts
13-May-17 06:36 33.947635 -94.841987 254 34045ft 436kts
13-May-17 06:37 33.947635 -94.841987 254 34045ft 436kts
13-May-17 06:38 33.947635 -94.841987 254 34045ft 436kts
13-May-17 06:39 33.947635 -94.841987 254 34045ft 436kts
13-May-17 06:40 33.947635 -94.841987 254 34045ft 436kts
13-May-17 06:41 33.947635 -94.841987 254 34045ft 436kts
13-May-17 06:42 33.947635 -94.841987 254 34045ft 436kts
13-May-17 06:43 33.947635 -94.841987 254 34045ft 436kts
13-May-17 06:44 33.947635 -94.841987 254 34045ft 436kts
13-May-17 06:45 33.947635 -94.841987 254 34045ft 436kts
13-May-17 06:46 33.947635 -94.841987 254 34045ft 436kts
13-May-17 06:47 33.947635 -94.841987 254 34045ft 436kts
13-May-17 06:48 33.947635 -94.841987 254 34045ft 436kts
13-May-17 06:49 33.947635 -94.841987 254 34045ft 436kts
13-May-17 06:50 33.947635 -94.841987 254 34045ft 436kts
13-May-17 06:51 33.947635 -94.841987 254 34045ft 436kts
13-May-17 06:52 33.947635 -94.841987 254 34045ft 436kts
13-May-17 06:53 33.947635 -94.841987 254 34045ft 436kts
13-May-17 06:54 33.947635 -94.841987 254 34045ft 436kts
13-May-17 06:55 33.947635 -94.841987 254 34045ft 436kts
13-May-17 06:56 33.947635 -94.841987 254 34045ft 436kts
13-May-17 06:57 33.947635 -94.841987 254 34045ft 436kts
13-May-17 06:58 33.947635 -94.841987 254 34045ft 436kts
13-May-17 06:59 33.947635 -94.841987 254 34045ft 436kts
13-May-17 07:00 33.947635 -94.841987 254 34045ft 436kts
13-May-17 07:01 33.947635 -94.841987 254 34045ft 436kts
13-May-17 07:02 33.947635 -94.841987 254 34045ft 436kts
13-May-17 07:03 33.947635 -94.841987 254 34045ft 436kts
13-May-17 07:04 33.947635 -94.841987 254 34045ft 436kts
13-May-17 07:05 33.947635 -94.841987 254 34045ft 436kts
13-May-17 07:06 33.947635 -94.841987 254 34045ft 436kts
13-May-17 07:07 33.947635 -94.841987 254 34045ft 436kts
13-May-17 07:08 33.947635 -94.841987 254 34045ft 436kts
13-May-17 07:09 33.947635 -94.841987 254 34045ft 436kts
13-May-17 07:10 33.947635 -94.841987 254 34045ft 436kts
13-May-17 07:11 33.947635 -94.841987 254 34045ft 436kts
13-May-17 07:12 33.947635 -94.841987 254 34045ft 436kts
13-May-17 07:13 33.947635 -94.841987 254 34045ft 436kts
13-May-17 07:14 33.947635 -94.841987 254 34045ft 436kts
13-May-17 07:15 33.947635 -94.841987 254 34045ft 436kts
13-May-17 07:16 33.947635 -94.841987 254 34045ft 436kts
13-May-17 07:17 33.947635 -94.841987 254 34045ft 436kts
13-May-17 07:18 33.947635 -94.841987 254 34045ft 436kts
13-May-17 07:19 33.947635 -94.841987 254 34045ft 436kts
13-May-17 07:20 33.947635 -94.841987 254 34045ft 436kts
13-May-17 07:21 33.947635 -94.841987 254 34045ft 436kts
13-May-17 07:22 33.947635 -94.841987 254 34045ft 436kts
13-May-17 07:23 33.947635 -94.841987 254 34045ft 436kts
13-May-17 07:24 33.947635 -94.841987 254 34045ft 436kts
13-May-17 07:25 33.947635 -94.841987 254 34045ft 436kts
13-May-17 07:26 33.947635 -94.841987 254 34045ft 436kts
13-May-17 07:27 33.947635 -94.841987 254 34045ft 436kts
13-May-17 07:28 33.947635 -94.841987 254 34045ft 436kts
13-May-17 07:29 33.947635 -94.841987 254 34045ft 436kts
13-May-17 07:30 33.947635 -94.841987 254 34045ft 436kts
13-May-17 07:31 33.947635 -94.841987 254 34045ft 436kts
13-May-17 07:32 33.947635 -94.841987 254 34045ft 436kts
13-May-17 07:33 33.947635 -94.841987 254 34045ft 436kts
13-May-17 07:34 33.947635 -94.841987 254 34045ft 436kts
13-May-17 07:35 33.947635 -94.841987 254 34045ft 436kts
13-May-17 07:36 33.947635 -94.841987 254 34045ft 436kts
13-May-17 07:37 33.947635 -94.841987 254 34045ft 436kts
13-May-17 07:38 33.947635 -94.841987 254 34045ft 436kts
13-May-17 07:39 33.947635 -94.841987 254 34045ft 436kts
13-May-17 07:40 33.947635 -94.841987 254 34045ft 436kts
13-May-17 07:41 33.947635 -94.841987 254 34045ft 436kts
13-May-17 07:42 33.947635 -94.841987 254 34045ft 436kts
13-May-17 07:43 33.947635 -94.841987 254 34045ft 436kts
13-May-17 07:44 33.947635 -94.841987 254 34045ft 436kts
13-May-17 07:45 33.947635 -94.841987 254 34045ft 436kts
13-May-17 07:46 33.947635 -94.841987 254 34045ft 436kts
13-May-17 07:47 33.947635 -94.841987 254 34045ft 436kts
13-May-17 07:48 33.947635 -94.841987 254 34045ft 436kts
13-May-17 07:49 33.947635 -94.841987 254 34045ft 436kts
13-May-17 07:50 33.947635 -94.841987 254 34045ft 436kts
13-May-17 07:51 33.947635 -94.841987 254 34045ft 436kts
13-May-17 07:52 33.947635 -94.841987 254 34045ft 436kts
13-May-17 07:53 33.947635 -94.841987 254 34045ft 436kts
13-May-17 07:54 33.947635 -94.841987 254 34045ft 436kts
13-May-17 07:55 33.947635 -94.841987 254 34045ft 436kts
13-May-17 07:56 33.947635 -94.841987 254 34045ft 436kts
13-May-17 07:57 33.947635 -94.841987 254 34045ft 436kts
13-May-17 07:58 33.947635 -94.841987 254 34045ft 436kts
13-May-17 07:59 33.947635 -94.841987 254 34045ft 436kts
13-May-17 08:00 33.947635 -94.841987 254 34045ft 436kts
13-May-17 08:01 33.947635 -94.841987 254 34045ft 436kts
13-May-17 08:02 33.947635 -94.841987 254 34045ft 436kts
13-May-17 08:03 33.947635 -94.841987 254 34045ft 436kts
13-May-17 08:04 33.947635 -94.841987 254 34045ft 436kts
13-May-17 08:05 33.947635 -94.841987 254 34045ft 436kts
13-May-17 08:06 33.947635 -94.841987 254 34045ft 436kts
13-May-17 08:07 33.947635 -94.841987 254 34045ft 436kts
13-May-17 08:08 33.947635 -94.841987 254 34045ft 436kts
13-May-17 08:09 33.947635 -94.841987 254 34045ft 436kts
13-May-17 08:10 33.947635 -94.841987 254 34045ft 436kts
13-May-17 08:11 33.947635 -94.841987 254 34045ft 436kts
13-May-17 08:12 33.947635 -94.841987 254 34045ft 436kts
13-May-17 08:13 33.947635 -94.841987 254 34045ft 436kts
13-May-17 08:14 33.947635 -94.841987 254 34045ft 436kts
13-May-17 08:15 33.947635 -94.841987 254 34045ft 436kts
13-May-17 08:16 33.947635 -94.841987 254 34045ft 436kts
13-May-17 08:17 33.947635 -94.841987 254 34045ft 436kts
13-May-17 08:18 33.947635 -94.841987 254 34045ft 436kts
13-May-17 08:19 33.947635 -94.841987 254 34045ft 436kts
13-May-17 08:20 33.947635 -94.841987 254 34045ft 436kts
13-May-17 08:21 33.947635 -94.841987 254 34045ft 436kts
13-May-17 08:22 33.947635 -94.841987 254 34045ft 436kts
13-May-17 08:23 33.947635 -94.841987 254 34045ft 436kts
13-May-17 08:24 33.947635 -94.841987 254 34045ft 436kts
13-May-17 08:25 33.947635 -94.841987 254 34045ft 436kts
13-May-17 08:26 33.947635 -94.841987 254 34045ft 436kts
13-May-17 08:27 33.947635 -94.841987 254 34045ft 436kts
13-May-17 08:28 33.947635 -94.841987 254 34045ft 436kts
13-May-17 08:29 33.947635 -94.841987 254 34045ft 436kts
13-May-17 08:30 33.947635 -94.841987 254 34045ft 436kts
13-May-17 08:31 33.947635 -94.841987 254 34045ft 436kts
13-May-17 08:32 33.947635 -94.841987 254 34045ft 436kts
13-May-17 08:33 33.947635 -94.841987 254 34045ft 436kts
13-May-17 08:34 33.947635 -94.841987 254 34045ft 436kts
13-May-17 08:35 33.947635 -94.841987 254 34045ft 436kts
13-May-17 08:36 33.947635 -94.841987 254 34045ft 436kts
13-May-17 08:37 33.947635 -94.841987 254 34045ft 436kts
13-May-17 08:38 33.947635 -94.841987 254 34045ft 436kts
13-May-17 08:39 33.947635 -94.841987 254 34045ft 436kts
13-May-17 08:40 33.947635 -94.841987 254 34045ft 436kts
13-May-17 08:41 33.947635 -94.841987 254 34045ft 436kts
13-May-17 08:42 33.947635 -94.841987 254 34045ft 436kts
13-May-17 08:43 33.947635 -94.841987 254 34045ft 436kts
13-May-17 08:44 33.947635 -94.841987 254 34045ft 436kts
13-May-17 08:45 33.947635 -94.841987 254 34045ft 436kts
13-May-17 08:46 33.947635 -94.841987 254 34045ft 436kts
13-May-17 08:47 33.947635 -94.841987 254 34045ft 436kts
13-May-17 08:48 33.947635 -94.841987 254 34045ft 436kts
13-May-17 08:49 33.941699 -94.862694 253 34037ft 438kts
13-May-17 08:50 33.902150 -94.999705 253 32865ft 429kts
13-May-17 08:51 33.864355 -95.130127 253 31101ft 425kts
13-May-17 08:52 33.824901 -95.265649 253 29339ft 433kts
13-May-17 08:53 33.785173 -95.401422 253 27540ft 428kts
13-May-17 08:54 33.746094 -95.534399 253 25686ft 419kts
13-May-17 08:55 33.697020 -95.656500 235 23882ft 417kts
13-May-17 08:56 33.631682 -95.756867 234 22227ft 409kts
13-May-17 08:57 33.564938 -95.864068 236 20450ft 400kts
13-May-17 08:58 33.498729 -95.969052 235 18749ft 392kts
13-May-17 08:59 33.432090 -96.070028 236 17196ft 382kts
13-May-17 09:00 33.379391 -96.154128 235 15951ft 377kts
13-May-17 09:01 33.305825 -96.268126 234 14192ft 367kts
13-May-17 09:02 33.255663 -96.348689 246 12925ft 357kts
13-May-17 09:03 33.242791 -96.460517 268 11343ft 324kts
13-May-17 09:04 33.234839 -96.574191 267 9827ft 282kts
13-May-17 09:05 33.229188 -96.650962 267 8999ft 279kts
13-May-17 09:06 33.221628 -96.751959 267 7629ft 241kts
13-May-17 09:07 33.216739 -96.817225 268 6960ft 237kts
13-May-17 09:08 33.209942 -96.906612 268 5570ft 223kts
13-May-17 09:09 33.205376 -96.966284 268 4547ft 211kts
13-May-17 09:10 33.199817 -97.033297 258 4048ft 202kts
13-May-17 09:11 33.149269 -97.053768 180 4029ft 200kts
13-May-17 09:12 33.095088 -97.053700 181 4039ft 193kts
13-May-17 09:13 33.042183 -97.053977 180 3161ft 179kts
13-May-17 09:14 32.996233 -97.054218 180 2203ft 157kts
13-May-17 09:15 32.953351 -97.054436 179 1395ft 154kts
13-May-17 09:16 32.910528 -97.054710 179 625ft 152kts
13-May-17 09:17 32.891482 -97.053511 149 617ft 21kts
13-May-17 09:18 32.890495 -97.049436 67 617ft 13kts
13-May-17 09:19 32.894488 -97.048890 359 617ft 11kts
13-May-17 09:20 32.897055 -97.047292 7 617ft 11kts
13-May-17 09:21 32.897620 -97.045684 90 617ft 0kts
13-May-17 09:22 32.897620 -97.045684 90 617ft 0kts
13-May-17 09:23 32.897620 -97.045684 90 617ft 0kts
13-May-17 09:24 32.897620 -97.045684 90 617ft 0kts

Navigation Log

Ident Type
Flight plan parsing failed, navigation log unavailable